Time;durP1;ratioP1;P1;durP2;ratioP2;P2;SDS_P1;SDS_P2;PMS_P1;PMS_P2;Temp;Humidity;BMP_temperature;BMP_pressure;BME280_temperature;BME280_humidity;BME280_pressure;Samples;Min_cycle;Max_cycle;Signal;HPM_P1;HPM_P2
2022/10/23 00:01:55;;;;;;;;;;;;;;;22.35;60.84;100695.38;7288371;19;153914;-56
2022/10/23 00:04:24;;;;;;;;;;;;;;;22.35;60.93;100694.56;7281957;19;153303;-56
2022/10/23 00:06:50;;;;;;;;;;;;;;;22.33;60.92;100692.06;7280995;19;154250;-57
2022/10/23 00:09:19;;;;;;;;;;;;;;;22.32;60.77;100684.78;7279464;19;151825;-57
2022/10/23 00:11:47;;;;;;;;;;;;;;;22.34;60.66;100673.19;7276745;19;153293;-56
2022/10/23 00:14:14;;;;;;;;;;;;;;;22.33;60.93;100663.94;7279165;19;152606;-57
2022/10/23 00:16:41;;;;;;;;;;;;;;;22.31;60.54;100660.59;7280744;19;152282;-57
2022/10/23 00:19:08;;;;;;;;;;;;;;;22.31;60.78;100657.78;7281103;19;154062;-57
2022/10/23 00:21:34;;;;;;;;;;;;;;;22.33;60.57;100657.47;7283361;19;153296;-57
2022/10/23 00:24:01;;;;;;;;;;;;;;;22.31;60.90;100656.94;7296081;19;152479;-57
2022/10/23 00:26:28;;;;;;;;;;;;;;;22.30;61.05;100653.34;7284151;19;155020;-57
2022/10/23 00:28:55;;;;;;;;;;;;;;;22.29;61.12;100650.84;7287203;19;151812;-57
2022/10/23 00:31:22;;;;;;;;;;;;;;;22.29;61.00;100651.66;7286184;19;153320;-57
2022/10/23 00:33:49;;;;;;;;;;;;;;;22.28;60.80;100652.81;7286778;19;152677;-57
2022/10/23 00:36:17;;;;;;;;;;;;;;;22.28;61.12;100655.63;7286554;19;152591;-57
2022/10/23 00:38:44;;;;;;;;;;;;;;;22.28;61.29;100652.81;7288345;19;152551;-57
2022/10/23 00:41:22;;;;;;;;;;;;;;;22.27;61.31;100653.13;7283588;19;153730;-57
2022/10/23 00:44:00;;;;;;;;;;;;;;;22.25;61.30;100647.03;7287593;19;151780;-57
2022/10/23 00:46:27;;;;;;;;;;;;;;;22.25;61.25;100642.22;7294620;19;153164;-57
2022/10/23 00:48:54;;;;;;;;;;;;;;;22.25;61.20;100636.59;7286077;19;151982;-57
2022/10/23 00:51:21;;;;;;;;;;;;;;;22.25;61.52;100639.41;7284048;19;153353;-57
2022/10/23 00:53:51;;;;;;;;;;;;;;;22.24;61.32;100631.28;7286670;19;153400;-57
2022/10/23 00:56:40;;;;;;;;;;;;;;;22.24;61.40;100626.50;7283109;19;152681;-57
2022/10/23 00:59:07;;;;;;;;;;;;;;;22.24;61.27;100626.50;7285451;19;152327;-57
2022/10/23 01:01:34;;;;;;;;;;;;;;;22.24;61.54;100620.84;7285581;19;154577;-57
2022/10/23 01:04:01;;;;;;;;;;;;;;;22.25;61.51;100621.69;7285728;19;152429;-57
2022/10/23 01:06:36;;;;;;;;;;;;;;;22.23;61.58;100612.72;7286719;19;152539;-57
2022/10/23 01:09:17;;;;;;;;;;;;;;;22.23;61.68;100619.19;7294215;19;153775;-57
2022/10/23 01:12:02;;;;;;;;;;;;;;;22.23;61.46;100624.81;7281348;19;152222;-57
2022/10/23 01:14:48;;;;;;;;;;;;;;;22.23;61.52;100616.38;7285141;19;153267;-57
2022/10/23 01:17:23;;;;;;;;;;;;;;;22.24;61.84;100614.41;7287082;19;151814;-57
2022/10/23 01:20:08;;;;;;;;;;;;;;;22.22;61.86;100600.66;7286640;19;152502;-57
2022/10/23 01:22:35;;;;;;;;;;;;;;;22.22;61.56;100602.63;7284407;19;153388;-61
2022/10/23 01:25:20;;;;;;;;;;;;;;;22.23;61.83;100596.69;7286214;19;152539;-57
2022/10/23 01:27:49;;;;;;;;;;;;;;;22.23;62.15;100590.22;7282573;19;152875;-57
2022/10/23 01:30:16;;;;;;;;;;;;;;;22.22;62.08;100585.75;7294350;19;154010;-57
2022/10/23 01:32:47;;;;;;;;;;;;;;;22.20;61.77;100569.22;7282794;19;153478;-57
2022/10/23 01:35:23;;;;;;;;;;;;;;;22.20;62.15;100580.47;7285859;19;152634;-57
2022/10/23 01:37:55;;;;;;;;;;;;;;;22.17;62.19;100567.84;7286584;19;154745;-55
2022/10/23 01:40:29;;;;;;;;;;;;;;;22.15;62.49;100575.81;7286900;19;151710;-56
2022/10/23 01:42:59;;;;;;;;;;;;;;;22.16;62.08;100562.59;7280634;19;153914;-58
2022/10/23 01:45:36;;;;;;;;;;;;;;;22.14;62.25;100560.09;7286158;19;152185;-56
2022/10/23 01:48:04;;;;;;;;;;;;;;;22.15;62.15;100555.28;7285664;19;156377;-56
2022/10/23 01:50:31;;;;;;;;;;;;;;;22.14;62.31;100545.19;7284997;19;153980;-57
2022/10/23 01:52:58;;;;;;;;;;;;;;;22.12;62.61;100528.63;7288581;19;152069;-56
2022/10/23 01:55:25;;;;;;;;;;;;;;;22.12;62.58;100527.81;7283683;19;152512;-56
2022/10/23 01:57:52;;;;;;;;;;;;;;;22.10;62.71;100525.31;7281530;19;152535;-56
2022/10/23 02:00:19;;;;;;;;;;;;;;;22.12;62.64;100534.25;7283839;19;153835;-56
2022/10/23 02:02:47;;;;;;;;;;;;;;;22.10;62.66;100518.88;7283559;19;154108;-56
2022/10/23 02:08:24;;;;;;;;;;;;;;;22.08;62.82;100488.22;7276817;19;153084;-56
2022/10/23 02:10:53;;;;;;;;;;;;;;;22.09;62.46;100497.50;7281422;19;154104;-56
2022/10/23 02:13:34;;;;;;;;;;;;;;;22.09;62.44;100500.31;7284348;19;152686;-56
2022/10/23 02:16:19;;;;;;;;;;;;;;;22.08;62.51;100487.41;7288425;19;153614;-56
2022/10/23 02:18:52;;;;;;;;;;;;;;;22.07;62.63;100489.41;7285602;19;152696;-55
2022/10/23 02:21:37;;;;;;;;;;;;;;;22.07;62.58;100485.78;7282938;19;153736;-56
2022/10/23 02:24:12;;;;;;;;;;;;;;;22.07;62.82;100485.78;7282093;19;155132;-57
2022/10/23 02:26:45;;;;;;;;;;;;;;;22.05;63.18;100482.44;7282345;19;152216;-56
2022/10/23 02:29:16;;;;;;;;;;;;;;;22.04;63.08;100476.00;7283795;19;152237;-55
2022/10/23 02:31:43;;;;;;;;;;;;;;;22.04;62.86;100473.19;7282174;19;153919;-55
2022/10/23 02:34:11;;;;;;;;;;;;;;;22.04;62.80;100469.53;7283534;19;152664;-56
2022/10/23 02:36:37;;;;;;;;;;;;;;;22.03;63.31;100477.13;7286275;19;154528;-55
2022/10/23 02:39:04;;;;;;;;;;;;;;;22.03;63.40;100465.09;7290549;19;153453;-56
2022/10/23 02:41:41;;;;;;;;;;;;;;;22.03;63.19;100457.44;7281746;19;151761;-56
2022/10/23 02:44:14;;;;;;;;;;;;;;;22.04;63.34;100447.03;7278133;19;152865;-56
2022/10/23 02:46:49;;;;;;;;;;;;;;;22.03;63.15;100439.78;7283664;19;151870;-56
2022/10/23 02:49:30;;;;;;;;;;;;;;;22.00;63.50;100429.97;7284308;19;152913;-56
2022/10/23 02:52:03;;;;;;;;;;;;;;;22.02;63.55;100432.47;7281763;19;154155;-57
2022/10/23 02:54:36;;;;;;;;;;;;;;;22.00;63.35;100443.22;7283327;19;152378;-56
2022/10/23 02:57:14;;;;;;;;;;;;;;;22.01;63.63;100428.00;7280531;19;152882;-56
2022/10/23 02:59:46;;;;;;;;;;;;;;;21.99;63.30;100425.50;7282371;19;154178;-56
2022/10/23 03:02:13;;;;;;;;;;;;;;;22.00;63.26;100423.53;7290489;19;151924;-56
2022/10/23 03:04:41;;;;;;;;;;;;;;;21.98;63.70;100411.78;7281645;19;152882;-56
2022/10/23 03:07:12;;;;;;;;;;;;;;;21.97;63.53;100405.34;7281407;19;152552;-56
2022/10/23 03:09:38;;;;;;;;;;;;;;;21.98;63.24;100380.84;7284502;19;153520;-56
2022/10/23 03:12:05;;;;;;;;;;;;;;;21.97;63.36;100373.56;7277622;19;154349;-56
2022/10/23 03:14:32;;;;;;;;;;;;;;;21.96;63.57;100369.91;7284368;19;152040;-56
2022/10/23 03:16:58;;;;;;;;;;;;;;;21.97;63.47;100356.69;7283475;19;153984;-56
2022/10/23 03:19:25;;;;;;;;;;;;;;;21.95;63.54;100348.56;7280934;19;153382;-55
2022/10/23 03:21:52;;;;;;;;;;;;;;;21.96;63.52;100340.97;7284215;19;152312;-56
2022/10/23 03:24:18;;;;;;;;;;;;;;;21.96;63.70;100352.22;7289267;19;153839;-56
2022/10/23 03:26:45;;;;;;;;;;;;;;;21.96;64.15;100347.41;7275884;19;152232;-56
2022/10/23 03:29:12;;;;;;;;;;;;;;;21.96;63.96;100338.16;7283504;19;153503;-56
2022/10/23 03:31:38;;;;;;;;;;;;;;;21.96;64.07;100338.16;7282823;19;152905;-56
2022/10/23 03:34:09;;;;;;;;;;;;;;;21.94;64.09;100327.22;7284240;19;153081;-56
2022/10/23 03:36:36;;;;;;;;;;;;;;;21.95;64.32;100308.34;7283482;19;152809;-56
2022/10/23 03:39:03;;;;;;;;;;;;;;;21.95;64.03;100305.56;7282474;19;154314;-56
2022/10/23 03:41:30;;;;;;;;;;;;;;;21.95;63.99;100302.75;7280915;19;152492;-58
2022/10/23 03:43:56;;;;;;;;;;;;;;;21.94;64.42;100299.09;7289368;19;152884;-58
2022/10/23 03:46:23;;;;;;;;;;;;;;;21.94;64.19;100296.28;7282657;19;152298;-58
2022/10/23 03:48:50;;;;;;;;;;;;;;;21.93;64.24;100293.81;7284197;19;153926;-57
2022/10/23 03:51:16;;;;;;;;;;;;;;;21.95;64.38;100308.34;7281352;19;154054;-57
2022/10/23 03:53:43;;;;;;;;;;;;;;;21.94;64.77;100301.09;7280225;19;151761;-57
2022/10/23 03:56:10;;;;;;;;;;;;;;;21.92;64.98;100295.78;7278944;19;153450;-58
2022/10/23 03:58:36;;;;;;;;;;;;;;;21.93;64.85;100282.56;7281235;19;154545;-58
2022/10/23 04:01:03;;;;;;;;;;;;;;;21.92;65.22;100278.06;7281522;19;152004;-58
2022/10/23 04:03:30;;;;;;;;;;;;;;;21.91;65.18;100268.81;7281575;19;152102;-58
2022/10/23 04:05:56;;;;;;;;;;;;;;;21.91;64.87;100268.81;7289381;19;154069;-58
2022/10/23 04:08:23;;;;;;;;;;;;;;;21.89;65.11;100259.88;7281122;19;153403;-57
2022/10/23 04:10:49;;;;;;;;;;;;;;;21.91;65.06;100262.34;7280842;19;153356;-58
2022/10/23 04:13:16;;;;;;;;;;;;;;;21.89;65.23;100248.63;7277061;19;152301;-58
2022/10/23 04:15:56;;;;;;;;;;;;;;;21.88;65.23;100255.41;7282534;19;152909;-58
2022/10/23 04:18:25;;;;;;;;;;;;;;;21.88;65.31;100235.72;7280958;19;153727;-58
2022/10/23 04:20:52;;;;;;;;;;;;;;;21.88;64.99;100241.34;7279864;19;152798;-58
2022/10/23 04:23:19;;;;;;;;;;;;;;;21.89;65.05;100245.00;7279853;19;153083;-58
2022/10/23 04:25:46;;;;;;;;;;;;;;;21.88;65.03;100226.47;7281618;19;153543;-58
2022/10/23 04:28:32;;;;;;;;;;;;;;;21.88;65.17;100223.66;7285739;19;151689;-58
2022/10/23 04:30:59;;;;;;;;;;;;;;;21.88;65.04;100212.41;7280371;19;154161;-58
2022/10/23 04:33:26;;;;;;;;;;;;;;;21.88;65.07;100212.41;7279395;19;152914;-58
2022/10/23 04:35:56;;;;;;;;;;;;;;;21.86;65.31;100207.09;7281161;19;151690;-58
2022/10/23 04:38:23;;;;;;;;;;;;;;;21.85;65.51;100191.38;7279965;19;152284;-58
2022/10/23 04:40:49;;;;;;;;;;;;;;;21.85;65.52;100184.97;7281927;19;151958;-58
2022/10/23 04:43:16;;;;;;;;;;;;;;;21.84;65.44;100184.13;7277671;19;155061;-58
2022/10/23 04:45:42;;;;;;;;;;;;;;;21.85;65.13;100168.09;7280041;19;153354;-58
2022/10/23 04:48:09;;;;;;;;;;;;;;;21.86;65.22;100178.97;7280544;19;153671;-58
2022/10/23 04:50:36;;;;;;;;;;;;;;;21.86;65.27;100167.72;7288082;19;153038;-58
2022/10/23 04:53:02;;;;;;;;;;;;;;;21.85;65.64;100162.47;7279053;19;152249;-58
2022/10/23 04:55:29;;;;;;;;;;;;;;;21.85;65.73;100171.69;7280730;19;154226;-58
2022/10/23 04:57:55;;;;;;;;;;;;;;;21.85;65.49;100165.28;7276036;19;154392;-58
2022/10/23 05:00:22;;;;;;;;;;;;;;;21.85;65.64;100151.22;7281117;19;152367;-58
2022/10/23 05:02:49;;;;;;;;;;;;;;;21.85;65.53;100159.66;7279318;19;153030;-57
2022/10/23 05:05:15;;;;;;;;;;;;;;;21.84;65.65;100149.56;7277874;19;154491;-58
2022/10/23 05:07:42;;;;;;;;;;;;;;;21.83;65.45;100145.09;7280354;19;151879;-57
2022/10/23 05:10:09;;;;;;;;;;;;;;;21.82;65.80;100141.44;7288128;19;152657;-58
2022/10/23 05:12:36;;;;;;;;;;;;;;;21.82;65.58;100141.44;7288585;19;153388;-58
2022/10/23 05:15:03;;;;;;;;;;;;;;;21.83;65.78;100136.66;7288098;19;152836;-58
2022/10/23 05:17:34;;;;;;;;;;;;;;;21.84;65.49;100132.69;7284864;19;154641;-58
2022/10/23 05:20:02;;;;;;;;;;;;;;;21.83;65.90;100133.84;7286300;19;151718;-58
2022/10/23 05:22:30;;;;;;;;;;;;;;;21.82;65.65;100116.13;7283728;19;154203;-58
2022/10/23 05:24:57;;;;;;;;;;;;;;;21.82;65.55;100112.50;7286749;19;153807;-59
2022/10/23 05:27:24;;;;;;;;;;;;;;;21.82;65.90;100090.81;7282811;19;152401;-58
2022/10/23 05:29:50;;;;;;;;;;;;;;;21.82;66.01;100101.25;7287480;19;153118;-58
2022/10/23 05:32:17;;;;;;;;;;;;;;;21.81;65.93;100103.22;7283956;19;154130;-58
2022/10/23 05:34:44;;;;;;;;;;;;;;;21.82;65.92;100092.81;7293098;19;152195;-58
2022/10/23 05:37:13;;;;;;;;;;;;;;;21.80;66.10;100090.34;7286219;19;154315;-57
2022/10/23 05:39:39;;;;;;;;;;;;;;;21.82;66.12;100095.63;7286662;19;152331;-57
2022/10/23 05:42:06;;;;;;;;;;;;;;;21.80;65.82;100095.97;7280652;19;154297;-58
2022/10/23 05:44:32;;;;;;;;;;;;;;;21.80;66.04;100083.91;7283979;19;153249;-58
2022/10/23 05:46:59;;;;;;;;;;;;;;;21.80;65.95;100090.34;7284862;19;152482;-58
2022/10/23 05:49:26;;;;;;;;;;;;;;;21.78;66.20;100078.59;7285173;19;152746;-58
2022/10/23 05:51:52;;;;;;;;;;;;;;;21.79;66.34;100077.44;7283088;19;152292;-58
2022/10/23 05:54:19;;;;;;;;;;;;;;;21.80;66.22;100092.34;7291328;19;152311;-56
2022/10/23 05:56:46;;;;;;;;;;;;;;;21.79;66.08;100093.50;7280895;19;153809;-58
2022/10/23 05:59:12;;;;;;;;;;;;;;;21.79;66.12;100107.56;7285554;19;152446;-57
2022/10/23 06:01:44;;;;;;;;;;;;;;;21.78;66.14;100123.59;7285228;19;153508;-58
2022/10/23 06:04:13;;;;;;;;;;;;;;;21.78;66.36;100128.38;7283783;19;154015;-58
2022/10/23 06:06:39;;;;;;;;;;;;;;;21.78;66.25;100128.38;7285976;19;152858;-58
2022/10/23 06:09:06;;;;;;;;;;;;;;;21.78;66.18;100128.38;7285665;19;152669;-58
2022/10/23 06:11:32;;;;;;;;;;;;;;;21.77;66.36;100127.56;7282114;19;155958;-58
2022/10/23 06:13:59;;;;;;;;;;;;;;;21.77;66.44;100124.75;7283085;19;154032;-58
2022/10/23 06:16:26;;;;;;;;;;;;;;;21.76;66.49;100125.91;7291388;19;153105;-58
2022/10/23 06:18:53;;;;;;;;;;;;;;;21.77;66.48;100132.34;7284397;19;151817;-58
2022/10/23 06:21:20;;;;;;;;;;;;;;;21.77;66.55;100118.31;7283573;19;152666;-58
2022/10/23 06:23:46;;;;;;;;;;;;;;;21.76;66.43;100117.47;7284223;19;152784;-58
2022/10/23 06:26:14;;;;;;;;;;;;;;;21.76;66.19;100125.91;7280952;19;152767;-56
2022/10/23 06:28:41;;;;;;;;;;;;;;;21.74;66.07;100131.88;7285983;19;152855;-56
2022/10/23 06:31:09;;;;;;;;;;;;;;;21.76;66.28;100139.97;7284086;19;153537;-56
2022/10/23 06:33:36;;;;;;;;;;;;;;;21.77;66.62;100140.78;7281778;19;152030;-56
2022/10/23 06:36:04;;;;;;;;;;;;;;;21.74;66.75;100128.25;7284910;19;152596;-56
2022/10/23 06:38:35;;;;;;;;;;;;;;;21.74;66.38;100122.63;7292059;19;153466;-57
2022/10/23 06:41:02;;;;;;;;;;;;;;;21.73;66.49;100113.34;7282151;19;152600;-56
2022/10/23 06:43:29;;;;;;;;;;;;;;;21.71;66.55;100098.81;7282958;19;153248;-57
2022/10/23 06:46:02;;;;;;;;;;;;;;;21.71;66.49;100100.81;7284178;19;153879;-56
2022/10/23 06:48:29;;;;;;;;;;;;;;;21.72;66.32;100091.19;7285458;19;153468;-57
2022/10/23 06:50:56;;;;;;;;;;;;;;;21.71;66.64;100084.75;7282957;19;154063;-56
2022/10/23 06:53:23;;;;;;;;;;;;;;;21.73;66.63;100079.63;7284390;19;152658;-56
2022/10/23 06:56:02;;;;;;;;;;;;;;;21.73;66.49;100082.44;7283834;19;152181;-56
2022/10/23 06:58:29;;;;;;;;;;;;;;;21.72;66.86;100060.25;7281857;19;152302;-56
2022/10/23 07:00:58;;;;;;;;;;;;;;;21.72;66.70;100058.28;7291676;19;152172;-56
2022/10/23 07:03:25;;;;;;;;;;;;;;;21.72;66.48;100051.81;7282150;19;152400;-56
2022/10/23 07:05:59;;;;;;;;;;;;;;;21.71;66.46;100051.00;7280473;19;151849;-56
2022/10/23 07:08:27;;;;;;;;;;;;;;;21.70;66.47;100057.81;7285198;19;152604;-56
2022/10/23 07:10:53;;;;;;;;;;;;;;;21.70;66.92;100063.44;7282329;19;153965;-56
2022/10/23 07:13:21;;;;;;;;;;;;;;;21.70;66.70;100065.41;7281758;19;153403;-56
2022/10/23 07:15:48;;;;;;;;;;;;;;;21.69;66.87;100072.19;7284736;19;152769;-55
2022/10/23 07:18:15;;;;;;;;;;;;;;;21.69;66.83;100078.66;7282648;19;154456;-56
2022/10/23 07:20:42;;;;;;;;;;;;;;;21.70;66.79;100085.94;7284723;19;151960;-56
2022/10/23 07:23:10;;;;;;;;;;;;;;;21.69;66.52;100075.84;7289094;19;153290;-56
2022/10/23 07:25:37;;;;;;;;;;;;;;;21.69;67.06;100075.84;7283075;19;152304;-58
2022/10/23 07:28:03;;;;;;;;;;;;;;;21.68;66.86;100068.56;7279795;19;153517;-56
2022/10/23 07:30:30;;;;;;;;;;;;;;;21.68;66.75;100057.31;7280434;19;153335;-55
2022/10/23 07:32:57;;;;;;;;;;;;;;;21.68;66.71;100054.50;7283966;19;152079;-56
2022/10/23 07:35:23;;;;;;;;;;;;;;;21.70;66.88;100055.00;7283569;19;152270;-56
2022/10/23 07:37:50;;;;;;;;;;;;;;;21.69;67.06;100053.34;7282132;19;154101;-57
2022/10/23 07:40:17;;;;;;;;;;;;;;;21.69;67.05;100044.09;7285158;19;152016;-56
2022/10/23 07:42:44;;;;;;;;;;;;;;;21.69;67.06;100044.91;7279616;19;153585;-56
2022/10/23 07:45:11;;;;;;;;;;;;;;;21.70;66.90;100042.94;7288907;19;152710;-56
2022/10/23 07:47:38;;;;;;;;;;;;;;;21.69;66.73;100039.28;7280775;19;152850;-56
2022/10/23 07:50:04;;;;;;;;;;;;;;;21.67;66.84;100027.53;7281403;19;154471;-56
2022/10/23 07:52:33;;;;;;;;;;;;;;;21.66;67.09;100019.47;7281123;19;152909;-56
2022/10/23 07:55:01;;;;;;;;;;;;;;;21.67;66.96;100018.28;7280838;19;151858;-56
2022/10/23 07:57:28;;;;;;;;;;;;;;;21.66;66.89;100014.66;7277294;19;156172;-56
2022/10/23 07:59:54;;;;;;;;;;;;;;;21.67;67.31;100023.91;7282786;19;152165;-57
2022/10/23 08:02:21;;;;;;;;;;;;;;;21.66;67.61;100031.53;7281199;19;152264;-56
2022/10/23 08:04:48;;;;;;;;;;;;;;;21.67;67.24;100037.97;7286775;19;153612;-57
2022/10/23 08:07:15;;;;;;;;;;;;;;;21.67;67.46;100038.78;7282228;19;153036;-56
2022/10/23 08:09:41;;;;;;;;;;;;;;;21.67;67.34;100037.97;7281129;19;153936;-56
2022/10/23 08:12:08;;;;;;;;;;;;;;;21.68;67.14;100034.81;7278159;19;152029;-56
2022/10/23 08:14:35;;;;;;;;;;;;;;;21.68;67.43;100042.44;7280267;19;153660;-56
2022/10/23 08:17:03;;;;;;;;;;;;;;;21.68;66.99;100042.44;7280138;19;152763;-57
2022/10/23 08:19:30;;;;;;;;;;;;;;;21.66;66.60;100042.78;7281972;19;151808;-56
2022/10/23 08:21:57;;;;;;;;;;;;;;;21.67;67.24;100026.72;7263724;19;153103;-57
2022/10/23 08:24:24;;;;;;;;;;;;;;;21.67;67.12;100027.53;7275871;19;154494;-57
2022/10/23 08:26:51;;;;;;;;;;;;;;;21.66;67.20;100031.53;7284496;19;152202;-56
2022/10/23 08:29:17;;;;;;;;;;;;;;;21.65;67.01;100032.69;7280550;19;153394;-56
2022/10/23 08:31:44;;;;;;;;;;;;;;;21.65;67.31;100034.69;7276619;19;152330;-56
2022/10/23 08:34:11;;;;;;;;;;;;;;;21.65;66.59;100035.50;7278322;19;152752;-56
2022/10/23 08:36:38;;;;;;;;;;;;;;;21.63;66.47;100022.94;7279363;19;154881;-56
2022/10/23 08:39:05;;;;;;;;;;;;;;;21.63;66.90;100018.13;7281989;19;151991;-57
2022/10/23 08:41:41;;;;;;;;;;;;;;;21.62;66.39;100018.50;7277886;19;153481;-57
2022/10/23 08:44:24;;;;;;;;;;;;;;;21.61;66.39;100002.78;7283832;19;153817;-57
2022/10/23 08:47:02;;;;;;;;;;;;;;;21.60;66.36;100001.13;7287058;19;152100;-57
2022/10/23 08:49:35;;;;;;;;;;;;;;;21.59;66.96;100005.94;7295360;19;153081;-57
2022/10/23 08:52:06;;;;;;;;;;;;;;;21.58;66.68;100000.63;7286063;19;151802;-57
2022/10/23 08:54:38;;;;;;;;;;;;;;;21.58;66.96;100009.91;7286834;19;153586;-57
2022/10/23 08:57:11;;;;;;;;;;;;;;;21.58;66.44;100009.06;7282742;19;153967;-57
2022/10/23 08:59:41;;;;;;;;;;;;;;;21.58;66.50;100009.06;7285971;19;152040;-57
2022/10/23 09:02:23;;;;;;;;;;;;;;;21.57;66.48;99999.00;7288546;19;153050;-57
2022/10/23 09:04:51;;;;;;;;;;;;;;;21.58;66.52;99995.00;7285278;19;152922;-57
2022/10/23 09:07:39;;;;;;;;;;;;;;;21.56;66.58;99986.94;7287168;19;151960;-57
2022/10/23 09:10:13;;;;;;;;;;;;;;;21.57;66.78;99984.94;7287882;19;153429;-57
2022/10/23 09:12:40;;;;;;;;;;;;;;;21.56;67.09;99992.56;7289120;19;153292;-57
2022/10/23 09:15:24;;;;;;;;;;;;;;;21.55;66.77;99993.72;7286069;19;153698;-57
2022/10/23 09:17:56;;;;;;;;;;;;;;;21.55;66.66;99990.06;7285696;19;153411;-57
2022/10/23 09:20:24;;;;;;;;;;;;;;;21.56;66.68;99978.50;7288168;19;152822;-57
2022/10/23 09:22:56;;;;;;;;;;;;;;;21.57;66.99;99976.53;7284554;19;152713;-56
2022/10/23 09:25:32;;;;;;;;;;;;;;;21.55;66.92;99984.44;7283429;19;153978;-57
2022/10/23 09:28:00;;;;;;;;;;;;;;;21.54;66.96;99980.81;7283210;19;152533;-56
2022/10/23 09:30:32;;;;;;;;;;;;;;;21.52;66.81;99966.28;7286543;19;152626;-56
2022/10/23 09:33:00;;;;;;;;;;;;;;;21.52;66.51;99985.16;7280316;19;153381;-56
2022/10/23 09:35:28;;;;;;;;;;;;;;;21.52;66.78;99993.56;7293186;19;151947;-56
2022/10/23 09:37:55;;;;;;;;;;;;;;;21.55;66.76;99990.91;7285116;19;154410;-56
2022/10/23 09:40:32;;;;;;;;;;;;;;;21.48;68.34;99968.13;7286875;19;152035;-57
2022/10/23 09:43:00;;;;;;;;;;;;;;;21.46;68.61;99944.31;7282224;19;152438;-56
2022/10/23 09:45:28;;;;;;;;;;;;;;;21.44;68.17;99938.25;7286159;19;154334;-56
2022/10/23 09:48:10;;;;;;;;;;;;;;;21.43;68.38;99926.16;7285159;19;151837;-56
2022/10/23 09:50:37;;;;;;;;;;;;;;;21.40;68.90;99949.31;7287400;19;152897;-56
2022/10/23 09:53:03;;;;;;;;;;;;;;;21.39;69.14;99932.81;7284388;19;153080;-57
2022/10/23 09:55:30;;;;;;;;;;;;;;;21.38;69.37;99931.16;7290363;19;153728;-57
2022/10/23 09:57:56;;;;;;;;;;;;;;;21.40;68.34;99932.44;7280829;19;152309;-57
2022/10/23 10:00:24;;;;;;;;;;;;;;;21.40;68.55;99920.38;7283230;19;152056;-57
2022/10/23 10:03:01;;;;;;;;;;;;;;;21.39;68.35;99891.47;7284019;19;154321;-57
2022/10/23 10:05:31;;;;;;;;;;;;;;;21.39;68.02;99890.66;7272972;19;153009;-57
2022/10/23 10:08:02;;;;;;;;;;;;;;;21.37;68.05;99904.22;7284650;19;153108;-57
2022/10/23 10:10:34;;;;;;;;;;;;;;;21.35;67.94;99890.50;7286037;19;152417;-57
2022/10/23 10:13:06;;;;;;;;;;;;;;;21.35;67.79;99915.78;7280093;19;153532;-57
2022/10/23 10:15:46;;;;;;;;;;;;;;;21.36;67.70;99913.78;7276540;19;151855;-57
2022/10/23 10:18:31;;;;;;;;;;;;;;;21.35;67.36;99907.34;7290659;19;153100;-57
2022/10/23 10:21:27;;;;;;;;;;;;;;;21.34;67.65;99905.72;7284644;19;153268;-57
2022/10/23 10:24:20;;;;;;;;;;;;;;;21.34;67.24;99925.41;7280235;19;152267;-57
2022/10/23 10:26:54;;;;;;;;;;;;;;;21.34;67.45;99914.16;7276392;19;152433;-57
2022/10/23 10:29:29;;;;;;;;;;;;;;;21.32;67.40;99912.84;7283580;19;152353;-57
2022/10/23 10:31:59;;;;;;;;;;;;;;;21.32;67.15;99915.66;7283877;19;153559;-57
2022/10/23 10:34:31;;;;;;;;;;;;;;;21.32;66.86;99913.66;7281201;19;154024;-57
2022/10/23 10:37:01;;;;;;;;;;;;;;;21.30;66.74;99927.25;7282897;19;152103;-57
2022/10/23 10:39:44;;;;;;;;;;;;;;;21.32;66.85;99929.69;7285067;19;153427;-57
2022/10/23 10:42:20;;;;;;;;;;;;;;;21.29;66.92;99922.78;7284436;19;153998;-57
2022/10/23 10:44:49;;;;;;;;;;;;;;;21.32;67.00;99926.88;7279228;19;152218;-55
2022/10/23 10:47:38;;;;;;;;;;;;;;;21.34;66.55;99931.03;7283942;19;154405;-57
2022/10/23 10:50:22;;;;;;;;;;;;;;;21.36;66.53;99922.22;7285303;19;151902;-57
2022/10/23 10:53:01;;;;;;;;;;;;;;;21.39;66.46;99925.22;7284576;19;152702;-57
2022/10/23 10:55:39;;;;;;;;;;;;;;;21.44;66.45;99922.19;7281558;19;153539;-57
2022/10/23 10:58:20;;;;;;;;;;;;;;;21.50;66.50;99915.22;7279664;19;152725;-57
2022/10/23 11:00:49;;;;;;;;;;;;;;;21.54;66.93;99895.66;7285533;19;152776;-57
2022/10/23 11:03:26;;;;;;;;;;;;;;;21.59;66.77;99889.84;7283073;19;154124;-57
2022/10/23 11:06:01;;;;;;;;;;;;;;;21.61;66.72;99879.94;7288103;19;152250;-57
2022/10/23 11:08:36;;;;;;;;;;;;;;;21.65;66.94;99880.06;7280730;19;152300;-57
2022/10/23 11:11:40;;;;;;;;;;;;;;;21.69;66.76;99875.41;7281233;19;152322;-57
2022/10/23 11:14:31;;;;;;;;;;;;;;;21.72;67.17;99864.28;7281947;19;152210;-57
2022/10/23 11:17:08;;;;;;;;;;;;;;;21.78;66.86;99864.91;7281297;19;154321;-57
2022/10/23 11:19:39;;;;;;;;;;;;;;;21.85;66.57;99875.63;7283998;19;151689;-57
2022/10/23 11:22:11;;;;;;;;;;;;;;;21.94;66.85;99879.22;7281920;19;152408;-57
2022/10/23 11:25:00;;;;;;;;;;;;;;;22.00;67.15;99880.63;7279372;19;152871;-57
2022/10/23 11:27:35;;;;;;;;;;;;;;;22.06;66.98;99868.84;7275103;19;153946;-57
2022/10/23 11:30:08;;;;;;;;;;;;;;;22.11;67.12;99870.59;7290070;19;152092;-57
2022/10/23 11:32:48;;;;;;;;;;;;;;;22.21;66.88;99872.19;7282714;19;152998;-56
2022/10/23 11:35:21;;;;;;;;;;;;;;;22.26;66.76;99872.75;7277487;19;152440;-56
2022/10/23 11:38:07;;;;;;;;;;;;;;;22.29;67.33;99874.91;7280779;19;154440;-56
2022/10/23 11:40:34;;;;;;;;;;;;;;;22.38;67.35;99864.38;7282665;19;152082;-56
2022/10/23 11:43:01;;;;;;;;;;;;;;;22.46;67.04;99866.28;7278122;19;152318;-57
2022/10/23 11:45:31;;;;;;;;;;;;;;;22.53;67.18;99854.44;7280778;19;153241;-57
2022/10/23 11:48:02;;;;;;;;;;;;;;;22.61;66.87;99853.53;7282078;19;152453;-56
2022/10/23 11:50:48;;;;;;;;;;;;;;;22.66;66.70;99839.22;7283535;19;152751;-56
2022/10/23 11:53:37;;;;;;;;;;;;;;;22.72;66.27;99837.00;7287680;19;153565;-56
2022/10/23 11:56:09;;;;;;;;;;;;;;;22.74;66.11;99826.22;7277394;19;152858;-56
2022/10/23 11:58:41;;;;;;;;;;;;;;;22.77;65.81;99829.16;7279857;19;154956;-57
2022/10/23 12:01:23;;;;;;;;;;;;;;;22.80;66.00;99827.66;7281701;19;152668;-57
2022/10/23 12:03:53;;;;;;;;;;;;;;;22.83;65.26;99824.13;7281996;19;155408;-58
2022/10/23 12:06:25;;;;;;;;;;;;;;;22.86;65.43;99809.31;7278888;19;152735;-57
2022/10/23 12:08:53;;;;;;;;;;;;;;;22.87;65.54;99802.53;7282557;19;151709;-58
2022/10/23 12:11:25;;;;;;;;;;;;;;;22.87;65.39;99794.91;7271621;19;155258;-57
2022/10/23 12:13:57;;;;;;;;;;;;;;;22.91;65.07;99798.66;7281757;19;153976;-57
2022/10/23 12:16:39;;;;;;;;;;;;;;;22.92;64.61;99800.31;7277754;19;153045;-57
2022/10/23 12:19:30;;;;;;;;;;;;;;;22.94;64.82;99803.56;7285501;19;152607;-57
2022/10/23 12:22:26;;;;;;;;;;;;;;;22.94;64.57;99792.31;7285108;19;154128;-58
2022/10/23 12:25:23;;;;;;;;;;;;;;;22.96;64.70;99786.31;7284133;19;155244;-56
2022/10/23 12:28:19;;;;;;;;;;;;;;;22.97;64.47;99779.53;7278513;19;152561;-56
2022/10/23 12:30:52;;;;;;;;;;;;;;;22.98;64.12;99765.09;7286481;19;152355;-57
2022/10/23 12:33:44;;;;;;;;;;;;;;;22.99;64.13;99760.25;7286788;19;153455;-56
2022/10/23 12:36:26;;;;;;;;;;;;;;;22.99;63.85;99761.06;7283277;19;154280;-57
2022/10/23 12:39:30;;;;;;;;;;;;;;;22.99;63.76;99752.63;7294811;19;152045;-57
2022/10/23 12:42:23;;;;;;;;;;;;;;;23.00;63.54;99745.81;7281928;19;152552;-56
2022/10/23 12:45:18;;;;;;;;;;;;;;;23.01;63.42;99736.19;7287019;19;152658;-57
2022/10/23 12:47:59;;;;;;;;;;;;;;;23.01;63.17;99729.75;7285685;19;152392;-56
2022/10/23 12:50:49;;;;;;;;;;;;;;;23.00;63.27;99726.09;7286901;19;152678;-56
2022/10/23 12:53:25;;;;;;;;;;;;;;;23.02;63.03;99720.94;7286409;19;152254;-57
2022/10/23 12:56:07;;;;;;;;;;;;;;;23.02;63.12;99722.94;7283172;19;152404;-56